sensor_id;sensor_type;location;lat;lon;timestamp;pressure;altitude;pressure_sealevel;temperature
11849;BMP180;5983;49.966;8.052;2023-06-24T00:01:37;101419.00;;;17.60
11849;BMP180;5983;49.966;8.052;2023-06-24T00:04:06;101421.00;;;17.60
11849;BMP180;5983;49.966;8.052;2023-06-24T00:06:33;101425.00;;;17.50
11849;BMP180;5983;49.966;8.052;2023-06-24T00:08:59;101431.00;;;17.60
11849;BMP180;5983;49.966;8.052;2023-06-24T00:11:28;101432.00;;;17.60
11849;BMP180;5983;49.966;8.052;2023-06-24T00:13:55;101432.00;;;17.60
11849;BMP180;5983;49.966;8.052;2023-06-24T00:16:24;101430.00;;;17.60
11849;BMP180;5983;49.966;8.052;2023-06-24T00:18:54;101427.00;;;17.50
11849;BMP180;5983;49.966;8.052;2023-06-24T00:21:28;101428.00;;;17.50
11849;BMP180;5983;49.966;8.052;2023-06-24T00:23:57;101434.00;;;17.40
11849;BMP180;5983;49.966;8.052;2023-06-24T00:26:24;101427.00;;;17.40
11849;BMP180;5983;49.966;8.052;2023-06-24T00:28:51;101427.00;;;17.30
11849;BMP180;5983;49.966;8.052;2023-06-24T00:31:19;101429.00;;;17.20
11849;BMP180;5983;49.966;8.052;2023-06-24T00:33:46;101421.00;;;17.10
11849;BMP180;5983;49.966;8.052;2023-06-24T00:36:13;101417.00;;;17.00
11849;BMP180;5983;49.966;8.052;2023-06-24T00:38:41;101415.00;;;17.00
11849;BMP180;5983;49.966;8.052;2023-06-24T00:41:08;101418.00;;;17.10
11849;BMP180;5983;49.966;8.052;2023-06-24T00:43:35;101421.00;;;17.10
11849;BMP180;5983;49.966;8.052;2023-06-24T00:46:03;101418.00;;;17.10
11849;BMP180;5983;49.966;8.052;2023-06-24T00:48:32;101422.00;;;17.10
11849;BMP180;5983;49.966;8.052;2023-06-24T00:50:59;101422.00;;;17.00
11849;BMP180;5983;49.966;8.052;2023-06-24T00:53:27;101419.00;;;17.00
11849;BMP180;5983;49.966;8.052;2023-06-24T00:55:58;101411.00;;;16.90
11849;BMP180;5983;49.966;8.052;2023-06-24T00:58:29;101417.00;;;16.90
11849;BMP180;5983;49.966;8.052;2023-06-24T01:00:57;101427.00;;;16.90
11849;BMP180;5983;49.966;8.052;2023-06-24T01:03:25;101426.00;;;16.80
11849;BMP180;5983;49.966;8.052;2023-06-24T01:05:53;101434.00;;;16.80
11849;BMP180;5983;49.966;8.052;2023-06-24T01:08:20;101433.00;;;16.80
11849;BMP180;5983;49.966;8.052;2023-06-24T01:10:49;101426.00;;;16.80
11849;BMP180;5983;49.966;8.052;2023-06-24T01:13:18;101426.00;;;16.80
11849;BMP180;5983;49.966;8.052;2023-06-24T01:15:46;101429.00;;;16.80
11849;BMP180;5983;49.966;8.052;2023-06-24T01:18:23;101420.00;;;16.80
11849;BMP180;5983;49.966;8.052;2023-06-24T01:20:56;101420.00;;;16.80
11849;BMP180;5983;49.966;8.052;2023-06-24T01:24:09;101431.00;;;16.80
11849;BMP180;5983;49.966;8.052;2023-06-24T01:27:29;101424.00;;;16.90
11849;BMP180;5983;49.966;8.052;2023-06-24T01:30:38;101427.00;;;16.90
11849;BMP180;5983;49.966;8.052;2023-06-24T01:33:12;101430.00;;;16.80
11849;BMP180;5983;49.966;8.052;2023-06-24T01:35:42;101434.00;;;16.80
11849;BMP180;5983;49.966;8.052;2023-06-24T01:38:17;101433.00;;;16.80
11849;BMP180;5983;49.966;8.052;2023-06-24T01:40:50;101427.00;;;16.80
11849;BMP180;5983;49.966;8.052;2023-06-24T01:43:18;101425.00;;;16.80
11849;BMP180;5983;49.966;8.052;2023-06-24T01:45:51;101428.00;;;16.80
11849;BMP180;5983;49.966;8.052;2023-06-24T01:48:25;101433.00;;;16.80
11849;BMP180;5983;49.966;8.052;2023-06-24T01:50:59;101437.00;;;16.80
11849;BMP180;5983;49.966;8.052;2023-06-24T01:53:28;101443.00;;;16.70
11849;BMP180;5983;49.966;8.052;2023-06-24T01:55:59;101434.00;;;16.60
11849;BMP180;5983;49.966;8.052;2023-06-24T01:58:27;101440.00;;;16.60
11849;BMP180;5983;49.966;8.052;2023-06-24T02:00:56;101432.00;;;16.50
11849;BMP180;5983;49.966;8.052;2023-06-24T02:03:26;101436.00;;;16.40
11849;BMP180;5983;49.966;8.052;2023-06-24T02:05:56;101433.00;;;16.30
11849;BMP180;5983;49.966;8.052;2023-06-24T02:08:24;101435.00;;;16.30
11849;BMP180;5983;49.966;8.052;2023-06-24T02:10:53;101426.00;;;16.20
11849;BMP180;5983;49.966;8.052;2023-06-24T02:13:22;101437.00;;;16.10
11849;BMP180;5983;49.966;8.052;2023-06-24T02:15:52;101428.00;;;16.10
11849;BMP180;5983;49.966;8.052;2023-06-24T02:18:21;101429.00;;;16.10
11849;BMP180;5983;49.966;8.052;2023-06-24T02:20:51;101431.00;;;16.00
11849;BMP180;5983;49.966;8.052;2023-06-24T02:23:19;101426.00;;;16.10
11849;BMP180;5983;49.966;8.052;2023-06-24T02:25:49;101431.00;;;16.00
11849;BMP180;5983;49.966;8.052;2023-06-24T02:28:17;101427.00;;;16.10
11849;BMP180;5983;49.966;8.052;2023-06-24T02:30:46;101430.00;;;16.10
11849;BMP180;5983;49.966;8.052;2023-06-24T02:33:14;101423.00;;;16.10
11849;BMP180;5983;49.966;8.052;2023-06-24T02:35:41;101432.00;;;16.10
11849;BMP180;5983;49.966;8.052;2023-06-24T02:38:10;101429.00;;;16.10
11849;BMP180;5983;49.966;8.052;2023-06-24T02:40:37;101421.00;;;16.10
11849;BMP180;5983;49.966;8.052;2023-06-24T02:43:04;101415.00;;;16.00
11849;BMP180;5983;49.966;8.052;2023-06-24T02:45:31;101424.00;;;16.00
11849;BMP180;5983;49.966;8.052;2023-06-24T02:47:59;101416.00;;;16.00
11849;BMP180;5983;49.966;8.052;2023-06-24T02:50:27;101416.00;;;16.00
11849;BMP180;5983;49.966;8.052;2023-06-24T02:52:56;101422.00;;;16.00
11849;BMP180;5983;49.966;8.052;2023-06-24T02:55:26;101425.00;;;16.00
11849;BMP180;5983;49.966;8.052;2023-06-24T02:57:54;101434.00;;;16.00
11849;BMP180;5983;49.966;8.052;2023-06-24T03:00:23;101434.00;;;15.90
11849;BMP180;5983;49.966;8.052;2023-06-24T03:02:51;101426.00;;;15.90
11849;BMP180;5983;49.966;8.052;2023-06-24T03:05:18;101434.00;;;15.70
11849;BMP180;5983;49.966;8.052;2023-06-24T03:07:46;101438.00;;;15.60
11849;BMP180;5983;49.966;8.052;2023-06-24T03:10:13;101434.00;;;15.60
11849;BMP180;5983;49.966;8.052;2023-06-24T03:12:42;101434.00;;;15.40
11849;BMP180;5983;49.966;8.052;2023-06-24T03:15:09;101440.00;;;15.40
11849;BMP180;5983;49.966;8.052;2023-06-24T03:17:37;101434.00;;;15.40
11849;BMP180;5983;49.966;8.052;2023-06-24T03:20:05;101428.00;;;15.40
11849;BMP180;5983;49.966;8.052;2023-06-24T03:22:33;101423.00;;;15.40
11849;BMP180;5983;49.966;8.052;2023-06-24T03:25:00;101439.00;;;15.40
11849;BMP180;5983;49.966;8.052;2023-06-24T03:27:27;101434.00;;;15.40
11849;BMP180;5983;49.966;8.052;2023-06-24T03:29:55;101439.00;;;15.30
11849;BMP180;5983;49.966;8.052;2023-06-24T03:32:22;101439.00;;;15.30
11849;BMP180;5983;49.966;8.052;2023-06-24T03:34:49;101443.00;;;15.30
11849;BMP180;5983;49.966;8.052;2023-06-24T03:37:16;101440.00;;;15.40
11849;BMP180;5983;49.966;8.052;2023-06-24T03:39:43;101438.00;;;15.50
11849;BMP180;5983;49.966;8.052;2023-06-24T03:42:10;101441.00;;;15.50
11849;BMP180;5983;49.966;8.052;2023-06-24T03:44:37;101436.00;;;15.50
11849;BMP180;5983;49.966;8.052;2023-06-24T03:47:05;101440.00;;;15.50
11849;BMP180;5983;49.966;8.052;2023-06-24T03:49:32;101445.00;;;15.40
11849;BMP180;5983;49.966;8.052;2023-06-24T03:51:59;101446.00;;;15.40
11849;BMP180;5983;49.966;8.052;2023-06-24T03:54:26;101449.00;;;15.30
11849;BMP180;5983;49.966;8.052;2023-06-24T03:56:53;101446.00;;;15.30
11849;BMP180;5983;49.966;8.052;2023-06-24T03:59:19;101450.00;;;15.30
11849;BMP180;5983;49.966;8.052;2023-06-24T04:01:46;101449.00;;;15.30
11849;BMP180;5983;49.966;8.052;2023-06-24T04:04:17;101457.00;;;15.40
11849;BMP180;5983;49.966;8.052;2023-06-24T04:06:44;101459.00;;;15.40
11849;BMP180;5983;49.966;8.052;2023-06-24T04:09:11;101452.00;;;15.30
11849;BMP180;5983;49.966;8.052;2023-06-24T04:11:38;101458.00;;;15.40
11849;BMP180;5983;49.966;8.052;2023-06-24T04:14:04;101463.00;;;15.50
11849;BMP180;5983;49.966;8.052;2023-06-24T04:16:32;101454.00;;;15.50
11849;BMP180;5983;49.966;8.052;2023-06-24T04:18:59;101454.00;;;15.50
11849;BMP180;5983;49.966;8.052;2023-06-24T04:21:27;101449.00;;;15.50
11849;BMP180;5983;49.966;8.052;2023-06-24T04:23:54;101456.00;;;15.60
11849;BMP180;5983;49.966;8.052;2023-06-24T04:26:21;101468.00;;;15.60
11849;BMP180;5983;49.966;8.052;2023-06-24T04:28:48;101460.00;;;15.70
11849;BMP180;5983;49.966;8.052;2023-06-24T04:31:15;101458.00;;;15.80
11849;BMP180;5983;49.966;8.052;2023-06-24T04:33:42;101463.00;;;15.90
11849;BMP180;5983;49.966;8.052;2023-06-24T04:36:09;101470.00;;;15.90
11849;BMP180;5983;49.966;8.052;2023-06-24T04:38:37;101466.00;;;16.00
11849;BMP180;5983;49.966;8.052;2023-06-24T04:41:04;101464.00;;;16.20
11849;BMP180;5983;49.966;8.052;2023-06-24T04:43:31;101463.00;;;16.30
11849;BMP180;5983;49.966;8.052;2023-06-24T04:45:58;101456.00;;;16.40
11849;BMP180;5983;49.966;8.052;2023-06-24T04:48:26;101463.00;;;16.50
11849;BMP180;5983;49.966;8.052;2023-06-24T04:50:53;101468.00;;;16.60
11849;BMP180;5983;49.966;8.052;2023-06-24T04:53:20;101477.00;;;16.70
11849;BMP180;5983;49.966;8.052;2023-06-24T04:55:48;101476.00;;;16.80
11849;BMP180;5983;49.966;8.052;2023-06-24T04:58:15;101468.00;;;16.80
11849;BMP180;5983;49.966;8.052;2023-06-24T05:00:43;101474.00;;;16.90
11849;BMP180;5983;49.966;8.052;2023-06-24T05:03:10;101472.00;;;17.00
11849;BMP180;5983;49.966;8.052;2023-06-24T05:05:37;101472.00;;;17.10
11849;BMP180;5983;49.966;8.052;2023-06-24T05:08:04;101478.00;;;17.20
11849;BMP180;5983;49.966;8.052;2023-06-24T05:10:31;101483.00;;;17.30
11849;BMP180;5983;49.966;8.052;2023-06-24T05:12:59;101485.00;;;17.40
11849;BMP180;5983;49.966;8.052;2023-06-24T05:15:26;101494.00;;;17.50
11849;BMP180;5983;49.966;8.052;2023-06-24T05:17:53;101496.00;;;17.60
11849;BMP180;5983;49.966;8.052;2023-06-24T05:20:20;101493.00;;;17.70
11849;BMP180;5983;49.966;8.052;2023-06-24T05:22:47;101493.00;;;17.80
11849;BMP180;5983;49.966;8.052;2023-06-24T05:25:13;101494.00;;;17.90
11849;BMP180;5983;49.966;8.052;2023-06-24T05:27:40;101493.00;;;18.00
11849;BMP180;5983;49.966;8.052;2023-06-24T05:30:12;101489.00;;;18.00
11849;BMP180;5983;49.966;8.052;2023-06-24T05:32:39;101492.00;;;18.10
11849;BMP180;5983;49.966;8.052;2023-06-24T05:35:08;101491.00;;;18.20
11849;BMP180;5983;49.966;8.052;2023-06-24T05:37:35;101490.00;;;18.30
11849;BMP180;5983;49.966;8.052;2023-06-24T05:40:03;101491.00;;;18.30
11849;BMP180;5983;49.966;8.052;2023-06-24T05:42:30;101494.00;;;18.40
11849;BMP180;5983;49.966;8.052;2023-06-24T05:44:57;101492.00;;;18.50
11849;BMP180;5983;49.966;8.052;2023-06-24T05:47:26;101494.00;;;18.60
11849;BMP180;5983;49.966;8.052;2023-06-24T05:49:53;101499.00;;;18.70
11849;BMP180;5983;49.966;8.052;2023-06-24T05:52:19;101496.00;;;18.70
11849;BMP180;5983;49.966;8.052;2023-06-24T05:54:46;101501.00;;;18.80
11849;BMP180;5983;49.966;8.052;2023-06-24T05:57:14;101502.00;;;18.90
11849;BMP180;5983;49.966;8.052;2023-06-24T05:59:41;101503.00;;;19.10
11849;BMP180;5983;49.966;8.052;2023-06-24T06:02:08;101492.00;;;19.20
11849;BMP180;5983;49.966;8.052;2023-06-24T06:04:37;101495.00;;;19.30
11849;BMP180;5983;49.966;8.052;2023-06-24T06:07:05;101497.00;;;19.30
11849;BMP180;5983;49.966;8.052;2023-06-24T06:09:32;101508.00;;;19.40
11849;BMP180;5983;49.966;8.052;2023-06-24T06:11:59;101500.00;;;19.60
11849;BMP180;5983;49.966;8.052;2023-06-24T06:14:26;101499.00;;;19.70
11849;BMP180;5983;49.966;8.052;2023-06-24T06:16:52;101519.00;;;19.80
11849;BMP180;5983;49.966;8.052;2023-06-24T06:19:19;101506.00;;;19.90
11849;BMP180;5983;49.966;8.052;2023-06-24T06:21:49;101506.00;;;20.00
11849;BMP180;5983;49.966;8.052;2023-06-24T06:24:16;101508.00;;;20.10
11849;BMP180;5983;49.966;8.052;2023-06-24T06:26:43;101506.00;;;20.20
11849;BMP180;5983;49.966;8.052;2023-06-24T06:29:11;101496.00;;;20.30
11849;BMP180;5983;49.966;8.052;2023-06-24T06:31:38;101504.00;;;20.30
11849;BMP180;5983;49.966;8.052;2023-06-24T06:34:05;101501.00;;;20.40
11849;BMP180;5983;49.966;8.052;2023-06-24T06:36:32;101505.00;;;20.50
11849;BMP180;5983;49.966;8.052;2023-06-24T06:39:00;101496.00;;;20.50
11849;BMP180;5983;49.966;8.052;2023-06-24T06:41:27;101500.00;;;20.70
11849;BMP180;5983;49.966;8.052;2023-06-24T06:43:54;101504.00;;;20.80
11849;BMP180;5983;49.966;8.052;2023-06-24T06:46:21;101501.00;;;20.90
11849;BMP180;5983;49.966;8.052;2023-06-24T06:48:48;101494.00;;;21.00
11849;BMP180;5983;49.966;8.052;2023-06-24T06:51:16;101500.00;;;21.10
11849;BMP180;5983;49.966;8.052;2023-06-24T06:53:44;101498.00;;;21.10
11849;BMP180;5983;49.966;8.052;2023-06-24T06:56:18;101502.00;;;21.20
11849;BMP180;5983;49.966;8.052;2023-06-24T06:58:45;101494.00;;;21.30
11849;BMP180;5983;49.966;8.052;2023-06-24T07:01:12;101505.00;;;21.40
11849;BMP180;5983;49.966;8.052;2023-06-24T07:03:39;101504.00;;;21.50
11849;BMP180;5983;49.966;8.052;2023-06-24T07:06:06;101500.00;;;21.60
11849;BMP180;5983;49.966;8.052;2023-06-24T07:08:34;101497.00;;;21.70
11849;BMP180;5983;49.966;8.052;2023-06-24T07:11:01;101494.00;;;21.80
11849;BMP180;5983;49.966;8.052;2023-06-24T07:13:29;101498.00;;;21.90
11849;BMP180;5983;49.966;8.052;2023-06-24T07:15:56;101501.00;;;22.00
11849;BMP180;5983;49.966;8.052;2023-06-24T07:18:24;101494.00;;;22.10
11849;BMP180;5983;49.966;8.052;2023-06-24T07:20:53;101496.00;;;22.20
11849;BMP180;5983;49.966;8.052;2023-06-24T07:23:21;101495.00;;;22.40
11849;BMP180;5983;49.966;8.052;2023-06-24T07:25:47;101501.00;;;22.50
11849;BMP180;5983;49.966;8.052;2023-06-24T07:28:14;101498.00;;;22.60
11849;BMP180;5983;49.966;8.052;2023-06-24T07:30:43;101497.00;;;22.70
11849;BMP180;5983;49.966;8.052;2023-06-24T07:33:10;101497.00;;;22.90
11849;BMP180;5983;49.966;8.052;2023-06-24T07:35:37;101499.00;;;23.00
11849;BMP180;5983;49.966;8.052;2023-06-24T07:38:06;101495.00;;;23.10
11849;BMP180;5983;49.966;8.052;2023-06-24T07:40:33;101493.00;;;23.10
11849;BMP180;5983;49.966;8.052;2023-06-24T07:43:00;101501.00;;;23.20
11849;BMP180;5983;49.966;8.052;2023-06-24T07:45:27;101504.00;;;23.30
11849;BMP180;5983;49.966;8.052;2023-06-24T07:47:55;101502.00;;;23.30
11849;BMP180;5983;49.966;8.052;2023-06-24T07:50:22;101507.00;;;23.40
11849;BMP180;5983;49.966;8.052;2023-06-24T07:52:50;101495.00;;;23.50
11849;BMP180;5983;49.966;8.052;2023-06-24T07:55:16;101494.00;;;23.60
11849;BMP180;5983;49.966;8.052;2023-06-24T07:57:45;101491.00;;;23.70
11849;BMP180;5983;49.966;8.052;2023-06-24T08:00:14;101492.00;;;23.90
11849;BMP180;5983;49.966;8.052;2023-06-24T08:02:41;101491.00;;;24.10
11849;BMP180;5983;49.966;8.052;2023-06-24T08:05:10;101494.00;;;24.20
11849;BMP180;5983;49.966;8.052;2023-06-24T08:07:38;101493.00;;;24.30
11849;BMP180;5983;49.966;8.052;2023-06-24T08:10:06;101496.00;;;24.30
11849;BMP180;5983;49.966;8.052;2023-06-24T08:12:33;101490.00;;;24.30
11849;BMP180;5983;49.966;8.052;2023-06-24T08:15:00;101494.00;;;24.40
11849;BMP180;5983;49.966;8.052;2023-06-24T08:17:27;101495.00;;;24.50
11849;BMP180;5983;49.966;8.052;2023-06-24T08:19:53;101497.00;;;24.60
11849;BMP180;5983;49.966;8.052;2023-06-24T08:22:22;101494.00;;;24.70
11849;BMP180;5983;49.966;8.052;2023-06-24T08:24:48;101488.00;;;24.80
11849;BMP180;5983;49.966;8.052;2023-06-24T08:27:15;101480.00;;;24.80
11849;BMP180;5983;49.966;8.052;2023-06-24T08:29:42;101487.00;;;24.80
11849;BMP180;5983;49.966;8.052;2023-06-24T08:32:09;101487.00;;;25.00
11849;BMP180;5983;49.966;8.052;2023-06-24T08:34:36;101484.00;;;25.10
11849;BMP180;5983;49.966;8.052;2023-06-24T08:37:04;101482.00;;;25.30
11849;BMP180;5983;49.966;8.052;2023-06-24T08:39:32;101476.00;;;25.40
11849;BMP180;5983;49.966;8.052;2023-06-24T08:41:59;101485.00;;;25.50
11849;BMP180;5983;49.966;8.052;2023-06-24T08:44:26;101481.00;;;25.60
11849;BMP180;5983;49.966;8.052;2023-06-24T08:46:53;101481.00;;;25.70
11849;BMP180;5983;49.966;8.052;2023-06-24T08:49:28;101487.00;;;25.80
11849;BMP180;5983;49.966;8.052;2023-06-24T08:52:02;101487.00;;;26.00
11849;BMP180;5983;49.966;8.052;2023-06-24T08:54:34;101480.00;;;26.00
11849;BMP180;5983;49.966;8.052;2023-06-24T08:57:02;101483.00;;;26.00
11849;BMP180;5983;49.966;8.052;2023-06-24T08:59:31;101484.00;;;26.10
11849;BMP180;5983;49.966;8.052;2023-06-24T09:01:57;101485.00;;;26.20
11849;BMP180;5983;49.966;8.052;2023-06-24T09:04:24;101489.00;;;26.30
11849;BMP180;5983;49.966;8.052;2023-06-24T09:06:51;101483.00;;;26.40
11849;BMP180;5983;49.966;8.052;2023-06-24T09:09:19;101479.00;;;26.50
11849;BMP180;5983;49.966;8.052;2023-06-24T09:11:56;101471.00;;;26.60
11849;BMP180;5983;49.966;8.052;2023-06-24T09:14:25;101472.00;;;26.70
11849;BMP180;5983;49.966;8.052;2023-06-24T09:16:53;101460.00;;;26.70
11849;BMP180;5983;49.966;8.052;2023-06-24T09:19:21;101464.00;;;26.90
11849;BMP180;5983;49.966;8.052;2023-06-24T09:21:48;101462.00;;;27.00
11849;BMP180;5983;49.966;8.052;2023-06-24T09:24:17;101463.00;;;27.20
11849;BMP180;5983;49.966;8.052;2023-06-24T09:26:45;101452.00;;;27.30
11849;BMP180;5983;49.966;8.052;2023-06-24T09:29:14;101447.00;;;27.30
11849;BMP180;5983;49.966;8.052;2023-06-24T09:31:48;101447.00;;;27.30
11849;BMP180;5983;49.966;8.052;2023-06-24T09:34:16;101448.00;;;27.40
11849;BMP180;5983;49.966;8.052;2023-06-24T09:36:44;101450.00;;;27.50
11849;BMP180;5983;49.966;8.052;2023-06-24T09:39:11;101441.00;;;27.60
11849;BMP180;5983;49.966;8.052;2023-06-24T09:41:41;101444.00;;;27.80
11849;BMP180;5983;49.966;8.052;2023-06-24T09:44:10;101444.00;;;27.90
11849;BMP180;5983;49.966;8.052;2023-06-24T09:46:40;101440.00;;;27.90
11849;BMP180;5983;49.966;8.052;2023-06-24T09:49:08;101433.00;;;27.90
11849;BMP180;5983;49.966;8.052;2023-06-24T09:51:38;101431.00;;;27.90
11849;BMP180;5983;49.966;8.052;2023-06-24T09:54:07;101431.00;;;28.00
11849;BMP180;5983;49.966;8.052;2023-06-24T09:56:36;101425.00;;;28.00
11849;BMP180;5983;49.966;8.052;2023-06-24T09:59:04;101427.00;;;28.00
11849;BMP180;5983;49.966;8.052;2023-06-24T10:01:32;101428.00;;;28.10
11849;BMP180;5983;49.966;8.052;2023-06-24T10:04:04;101417.00;;;28.10
11849;BMP180;5983;49.966;8.052;2023-06-24T10:06:33;101419.00;;;28.20
11849;BMP180;5983;49.966;8.052;2023-06-24T10:09:01;101414.00;;;28.20
11849;BMP180;5983;49.966;8.052;2023-06-24T10:11:28;101413.00;;;28.10
11849;BMP180;5983;49.966;8.052;2023-06-24T10:13:55;101408.00;;;28.10
11849;BMP180;5983;49.966;8.052;2023-06-24T10:16:22;101397.00;;;28.20
11849;BMP180;5983;49.966;8.052;2023-06-24T10:18:49;101405.00;;;28.20
11849;BMP180;5983;49.966;8.052;2023-06-24T10:21:18;101403.00;;;28.30
11849;BMP180;5983;49.966;8.052;2023-06-24T10:23:53;101400.00;;;28.40
11849;BMP180;5983;49.966;8.052;2023-06-24T10:26:25;101399.00;;;28.40
11849;BMP180;5983;49.966;8.052;2023-06-24T10:29:10;101389.00;;;28.70
11849;BMP180;5983;49.966;8.052;2023-06-24T10:31:53;101392.00;;;28.80
11849;BMP180;5983;49.966;8.052;2023-06-24T10:34:27;101397.00;;;28.90
11849;BMP180;5983;49.966;8.052;2023-06-24T10:36:58;101391.00;;;29.00
11849;BMP180;5983;49.966;8.052;2023-06-24T10:42:39;101384.00;;;29.20
11849;BMP180;5983;49.966;8.052;2023-06-24T10:45:19;101391.00;;;29.20
11849;BMP180;5983;49.966;8.052;2023-06-24T10:47:48;101382.00;;;29.20
11849;BMP180;5983;49.966;8.052;2023-06-24T10:50:21;101376.00;;;29.30
11849;BMP180;5983;49.966;8.052;2023-06-24T10:52:52;101378.00;;;29.40
11849;BMP180;5983;49.966;8.052;2023-06-24T10:55:23;101377.00;;;29.50
11849;BMP180;5983;49.966;8.052;2023-06-24T10:57:51;101376.00;;;29.60
11849;BMP180;5983;49.966;8.052;2023-06-24T11:00:20;101368.00;;;29.60
11849;BMP180;5983;49.966;8.052;2023-06-24T11:02:47;101364.00;;;29.80
11849;BMP180;5983;49.966;8.052;2023-06-24T11:05:14;101369.00;;;29.70
11849;BMP180;5983;49.966;8.052;2023-06-24T11:07:41;101360.00;;;29.60
11849;BMP180;5983;49.966;8.052;2023-06-24T11:10:12;101368.00;;;29.50
11849;BMP180;5983;49.966;8.052;2023-06-24T11:12:41;101360.00;;;29.40
11849;BMP180;5983;49.966;8.052;2023-06-24T11:15:10;101355.00;;;29.20
11849;BMP180;5983;49.966;8.052;2023-06-24T11:17:38;101345.00;;;29.30
11849;BMP180;5983;49.966;8.052;2023-06-24T11:20:08;101346.00;;;29.50
11849;BMP180;5983;49.966;8.052;2023-06-24T11:22:36;101343.00;;;29.70
11849;BMP180;5983;49.966;8.052;2023-06-24T11:25:04;101346.00;;;29.60
11849;BMP180;5983;49.966;8.052;2023-06-24T11:27:32;101336.00;;;29.50
11849;BMP180;5983;49.966;8.052;2023-06-24T11:30:00;101335.00;;;29.50
11849;BMP180;5983;49.966;8.052;2023-06-24T11:32:35;101328.00;;;29.70
11849;BMP180;5983;49.966;8.052;2023-06-24T11:35:05;101327.00;;;29.80
11849;BMP180;5983;49.966;8.052;2023-06-24T11:37:32;101329.00;;;29.90
11849;BMP180;5983;49.966;8.052;2023-06-24T11:40:05;101327.00;;;30.00
11849;BMP180;5983;49.966;8.052;2023-06-24T11:42:36;101329.00;;;30.20
11849;BMP180;5983;49.966;8.052;2023-06-24T11:45:07;101325.00;;;29.90
11849;BMP180;5983;49.966;8.052;2023-06-24T11:47:36;101331.00;;;29.90
11849;BMP180;5983;49.966;8.052;2023-06-24T11:50:05;101323.00;;;29.70
11849;BMP180;5983;49.966;8.052;2023-06-24T11:52:39;101319.00;;;29.60
11849;BMP180;5983;49.966;8.052;2023-06-24T11:55:21;101313.00;;;29.60
11849;BMP180;5983;49.966;8.052;2023-06-24T11:57:57;101306.00;;;29.70
11849;BMP180;5983;49.966;8.052;2023-06-24T12:00:28;101303.00;;;29.70
11849;BMP180;5983;49.966;8.052;2023-06-24T12:02:57;101306.00;;;29.80
11849;BMP180;5983;49.966;8.052;2023-06-24T12:05:27;101304.00;;;29.80
11849;BMP180;5983;49.966;8.052;2023-06-24T12:07:55;101306.00;;;29.90
11849;BMP180;5983;49.966;8.052;2023-06-24T12:10:23;101294.00;;;30.00
11849;BMP180;5983;49.966;8.052;2023-06-24T12:12:50;101297.00;;;30.00
11849;BMP180;5983;49.966;8.052;2023-06-24T12:15:19;101301.00;;;29.90
11849;BMP180;5983;49.966;8.052;2023-06-24T12:17:46;101296.00;;;29.80
11849;BMP180;5983;49.966;8.052;2023-06-24T12:20:14;101287.00;;;29.90
11849;BMP180;5983;49.966;8.052;2023-06-24T12:22:41;101287.00;;;29.90
11849;BMP180;5983;49.966;8.052;2023-06-24T12:25:09;101285.00;;;29.90
11849;BMP180;5983;49.966;8.052;2023-06-24T12:27:37;101291.00;;;30.00
11849;BMP180;5983;49.966;8.052;2023-06-24T12:30:07;101281.00;;;30.10
11849;BMP180;5983;49.966;8.052;2023-06-24T12:32:35;101284.00;;;30.10
11849;BMP180;5983;49.966;8.052;2023-06-24T12:35:03;101270.00;;;30.00
11849;BMP180;5983;49.966;8.052;2023-06-24T12:37:31;101271.00;;;30.00
11849;BMP180;5983;49.966;8.052;2023-06-24T12:39:58;101263.00;;;30.20
11849;BMP180;5983;49.966;8.052;2023-06-24T12:42:26;101264.00;;;30.30
11849;BMP180;5983;49.966;8.052;2023-06-24T12:44:53;101272.00;;;30.40
11849;BMP180;5983;49.966;8.052;2023-06-24T12:47:20;101261.00;;;30.40
11849;BMP180;5983;49.966;8.052;2023-06-24T12:49:49;101253.00;;;30.60
11849;BMP180;5983;49.966;8.052;2023-06-24T12:52:16;101257.00;;;30.70
11849;BMP180;5983;49.966;8.052;2023-06-24T12:54:43;101258.00;;;30.60
11849;BMP180;5983;49.966;8.052;2023-06-24T12:57:10;101255.00;;;30.40
11849;BMP180;5983;49.966;8.052;2023-06-24T12:59:37;101256.00;;;30.20
11849;BMP180;5983;49.966;8.052;2023-06-24T13:02:05;101250.00;;;30.00
11849;BMP180;5983;49.966;8.052;2023-06-24T13:04:32;101256.00;;;29.80
11849;BMP180;5983;49.966;8.052;2023-06-24T13:07:00;101246.00;;;29.70
11849;BMP180;5983;49.966;8.052;2023-06-24T13:09:27;101248.00;;;29.70
11849;BMP180;5983;49.966;8.052;2023-06-24T13:11:54;101250.00;;;29.90
11849;BMP180;5983;49.966;8.052;2023-06-24T13:14:21;101244.00;;;30.00
11849;BMP180;5983;49.966;8.052;2023-06-24T13:16:51;101248.00;;;30.10
11849;BMP180;5983;49.966;8.052;2023-06-24T13:19:18;101241.00;;;30.20
11849;BMP180;5983;49.966;8.052;2023-06-24T13:21:45;101248.00;;;30.30
11849;BMP180;5983;49.966;8.052;2023-06-24T13:24:13;101242.00;;;30.50
11849;BMP180;5983;49.966;8.052;2023-06-24T13:26:40;101245.00;;;30.50
11849;BMP180;5983;49.966;8.052;2023-06-24T13:29:07;101239.00;;;30.60
11849;BMP180;5983;49.966;8.052;2023-06-24T13:31:34;101228.00;;;30.70
11849;BMP180;5983;49.966;8.052;2023-06-24T13:34:01;101232.00;;;30.70
11849;BMP180;5983;49.966;8.052;2023-06-24T13:36:32;101235.00;;;30.60
11849;BMP180;5983;49.966;8.052;2023-06-24T13:39:02;101233.00;;;30.70
11849;BMP180;5983;49.966;8.052;2023-06-24T13:41:30;101226.00;;;30.70
11849;BMP180;5983;49.966;8.052;2023-06-24T13:43:59;101221.00;;;30.50
11849;BMP180;5983;49.966;8.052;2023-06-24T13:46:27;101221.00;;;30.20
11849;BMP180;5983;49.966;8.052;2023-06-24T13:48:55;101213.00;;;30.20
11849;BMP180;5983;49.966;8.052;2023-06-24T13:51:23;101216.00;;;30.20
11849;BMP180;5983;49.966;8.052;2023-06-24T13:53:52;101212.00;;;30.20
11849;BMP180;5983;49.966;8.052;2023-06-24T13:56:21;101219.00;;;30.20
11849;BMP180;5983;49.966;8.052;2023-06-24T13:58:51;101212.00;;;30.30
11849;BMP180;5983;49.966;8.052;2023-06-24T14:01:19;101209.00;;;30.30
11849;BMP180;5983;49.966;8.052;2023-06-24T14:03:47;101211.00;;;30.20
11849;BMP180;5983;49.966;8.052;2023-06-24T14:06:15;101204.00;;;30.00
11849;BMP180;5983;49.966;8.052;2023-06-24T14:08:43;101200.00;;;29.80
11849;BMP180;5983;49.966;8.052;2023-06-24T14:11:10;101201.00;;;29.80
11849;BMP180;5983;49.966;8.052;2023-06-24T14:13:37;101197.00;;;29.60
11849;BMP180;5983;49.966;8.052;2023-06-24T14:16:06;101204.00;;;29.50
11849;BMP180;5983;49.966;8.052;2023-06-24T14:18:33;101204.00;;;29.50
11849;BMP180;5983;49.966;8.052;2023-06-24T14:21:01;101190.00;;;29.40